createdAt,value
2022-09-06T00:02:44.015Z,4.65
2022-09-06T00:05:45.677Z,5.57
2022-09-06T00:08:47.730Z,5.03
2022-09-06T00:14:50.805Z,5.50
2022-09-06T00:17:52.324Z,7.68
2022-09-06T00:20:53.846Z,106.45
2022-09-06T00:23:55.484Z,328.63
2022-09-06T00:26:57.031Z,460.55
2022-09-06T00:29:58.623Z,431.00
2022-09-06T00:33:00.150Z,145.63
2022-09-06T00:36:01.862Z,52.50
2022-09-06T00:39:03.413Z,23.70
2022-09-06T00:42:11.273Z,8.02
2022-09-06T00:45:12.844Z,10.20
2022-09-06T00:48:14.351Z,8.45
2022-09-06T00:51:15.914Z,9.43
2022-09-06T00:54:17.439Z,8.73
2022-09-06T00:57:19.015Z,3.78
2022-09-06T01:00:20.790Z,6.88
2022-09-06T01:03:23.138Z,4.28
2022-09-06T01:06:29.006Z,5.35
2022-09-06T01:10:08.114Z,8.20
2022-09-06T01:13:57.309Z,5.88
2022-09-06T01:17:40.551Z,10.98
2022-09-06T01:20:59.056Z,6.22
2022-09-06T01:24:17.712Z,7.28
2022-09-06T01:27:47.008Z,8.68
2022-09-06T01:30:57.831Z,7.22
2022-09-06T01:34:08.332Z,5.28
2022-09-06T01:37:14.663Z,10.55
2022-09-06T01:40:16.276Z,4.85
2022-09-06T01:43:31.143Z,13.55
2022-09-06T01:46:51.310Z,6.70
2022-09-06T01:50:11.598Z,13.27
2022-09-06T01:53:38.251Z,17.08
2022-09-06T01:56:48.522Z,18.83
2022-09-06T01:59:56.108Z,27.17
2022-09-06T02:03:06.545Z,19.60
2022-09-06T02:06:10.876Z,15.95
2022-09-06T02:09:16.084Z,10.77
2022-09-06T02:12:17.680Z,38.63
2022-09-06T02:15:24.836Z,66.85
2022-09-06T02:18:51.017Z,94.70
2022-09-06T02:21:52.518Z,64.32
2022-09-06T02:24:54.124Z,57.13
2022-09-06T02:27:55.623Z,62.65
2022-09-06T02:31:02.632Z,12.85
2022-09-06T02:34:04.505Z,11.27
2022-09-06T02:37:06.485Z,9.20
2022-09-06T02:40:09.014Z,9.23
2022-09-06T02:43:10.557Z,7.00
2022-09-06T02:46:12.641Z,7.35
2022-09-06T02:49:14.226Z,6.72
2022-09-06T02:52:15.722Z,7.53
2022-09-06T02:55:17.272Z,16.88
2022-09-06T02:58:18.862Z,16.63
2022-09-06T03:01:20.457Z,11.35
2022-09-06T03:04:22.115Z,7.95
2022-09-06T03:07:23.670Z,7.35
2022-09-06T03:10:26.206Z,8.23
2022-09-06T03:13:28.028Z,8.48
2022-09-06T03:16:29.671Z,9.57
2022-09-06T03:19:31.230Z,8.63
2022-09-06T03:22:32.879Z,8.70
2022-09-06T03:25:34.378Z,9.13
2022-09-06T03:28:35.872Z,4.97
2022-09-06T03:31:37.421Z,4.57
2022-09-06T03:34:38.938Z,8.20
2022-09-06T03:37:40.428Z,9.15
2022-09-06T03:40:44.731Z,9.32
2022-09-06T03:43:46.256Z,4.55
2022-09-06T03:46:51.606Z,10.32
2022-09-06T03:49:53.146Z,5.32
2022-09-06T03:52:54.755Z,8.27
2022-09-06T03:55:57.617Z,8.27
2022-09-06T03:58:59.395Z,8.27
2022-09-06T04:02:00.958Z,10.82
2022-09-06T04:05:02.550Z,10.55
2022-09-06T04:08:04.076Z,10.85
2022-09-06T04:11:05.623Z,12.60
2022-09-06T04:14:07.180Z,10.43
2022-09-06T04:17:08.684Z,9.65
2022-09-06T04:20:10.594Z,10.18
2022-09-06T04:23:12.112Z,10.90
2022-09-06T04:26:15.813Z,6.97
2022-09-06T04:29:17.334Z,8.40
2022-09-06T04:32:18.899Z,8.27
2022-09-06T04:35:20.505Z,6.80
2022-09-06T04:38:22.119Z,6.47
2022-09-06T04:41:23.706Z,8.07
2022-09-06T04:44:25.478Z,8.57
2022-09-06T04:47:26.963Z,9.45
2022-09-06T04:50:28.497Z,6.25
2022-09-06T04:53:30.006Z,5.30
2022-09-06T04:56:31.520Z,8.98
2022-09-06T04:59:33.090Z,9.15
2022-09-06T05:02:34.697Z,4.47
2022-09-06T05:05:36.303Z,10.50
2022-09-06T05:08:39.075Z,11.88
2022-09-06T05:11:40.636Z,4.28
2022-09-06T05:14:42.192Z,11.30
2022-09-06T05:17:43.723Z,10.80
2022-09-06T05:20:50.856Z,7.32
2022-09-06T05:23:55.475Z,7.30
2022-09-06T05:27:03.782Z,8.05
2022-09-06T05:30:05.671Z,7.38
2022-09-06T05:33:10.992Z,8.15
2022-09-06T05:36:12.535Z,5.50
2022-09-06T05:39:14.106Z,4.50
2022-09-06T05:42:19.162Z,7.35
2022-09-06T05:45:20.978Z,6.38
2022-09-06T05:48:22.549Z,6.70
2022-09-06T05:51:24.255Z,6.85
2022-09-06T05:54:25.850Z,8.32
2022-09-06T05:57:27.352Z,6.82
2022-09-06T06:00:28.884Z,9.52
2022-09-06T06:03:30.455Z,8.57
2022-09-06T06:06:32.843Z,15.85
2022-09-06T06:09:34.364Z,12.73
2022-09-06T06:12:35.935Z,14.77
2022-09-06T06:15:37.444Z,8.75
2022-09-06T06:18:38.967Z,10.25
2022-09-06T06:21:40.519Z,9.68
2022-09-06T06:24:42.041Z,9.48
2022-09-06T06:27:44.046Z,5.47
2022-09-06T06:30:45.557Z,7.55
2022-09-06T06:33:47.076Z,8.82
2022-09-06T06:36:48.591Z,6.93
2022-09-06T06:39:50.204Z,20.60
2022-09-06T06:42:51.764Z,7.57
2022-09-06T06:45:53.346Z,8.05
2022-09-06T06:48:55.516Z,23.25
2022-09-06T06:51:57.144Z,9.32
2022-09-06T06:54:58.849Z,8.73
2022-09-06T06:58:00.555Z,9.30
2022-09-06T07:01:02.207Z,6.60
2022-09-06T07:04:04.445Z,19.60
2022-09-06T07:10:34.618Z,9.40
2022-09-06T07:13:36.461Z,11.18
2022-09-06T07:16:38.046Z,7.72
2022-09-06T07:29:26.642Z,5.97
2022-09-06T07:32:28.171Z,23.15
2022-09-06T07:35:29.713Z,13.30
2022-09-06T07:38:31.439Z,14.30
2022-09-06T07:44:34.410Z,10.23
2022-09-06T07:51:05.519Z,7.63
2022-09-06T07:54:29.452Z,6.53
2022-09-06T07:57:29.354Z,12.85
2022-09-06T08:00:31.684Z,9.07
2022-09-06T08:03:33.211Z,8.38
2022-09-06T08:10:00.657Z,9.05
2022-09-06T08:13:02.161Z,12.18
2022-09-06T08:16:08.260Z,8.02
2022-09-06T08:19:10.943Z,13.70
2022-09-06T08:22:12.562Z,8.98
2022-09-06T08:25:14.080Z,9.93
2022-09-06T08:28:15.799Z,7.43
2022-09-06T08:34:19.067Z,7.32
2022-09-06T08:37:24.831Z,9.15
2022-09-06T08:40:26.675Z,10.10
2022-09-06T08:43:28.589Z,12.27
2022-09-06T08:46:42.471Z,9.05
2022-09-06T08:49:48.099Z,11.57
2022-09-06T08:53:06.509Z,10.45
2022-09-06T08:56:23.664Z,11.73
2022-09-06T08:59:25.177Z,7.47
2022-09-06T09:05:30.449Z,16.98
2022-09-06T09:08:49.373Z,7.70
2022-09-06T09:11:51.044Z,7.65
2022-09-06T09:14:55.682Z,7.57
2022-09-06T09:17:58.253Z,5.93
2022-09-06T09:24:05.972Z,7.18
2022-09-06T09:27:11.132Z,9.20
2022-09-06T09:33:36.764Z,12.80
2022-09-06T09:36:38.521Z,8.73
2022-09-06T09:39:40.148Z,9.02
2022-09-06T09:42:41.763Z,10.07
2022-09-06T09:45:43.612Z,8.15
2022-09-06T09:49:06.405Z,8.40
2022-09-06T09:52:12.257Z,12.15
2022-09-06T09:55:14.574Z,12.90
2022-09-06T09:58:20.527Z,8.55
2022-09-06T10:01:25.775Z,13.80
2022-09-06T10:07:46.586Z,13.68
2022-09-06T10:10:48.101Z,9.98
2022-09-06T10:13:49.603Z,11.75
2022-09-06T10:16:52.179Z,9.73
2022-09-06T10:19:53.804Z,8.93
2022-09-06T10:23:04.755Z,11.38
2022-09-06T10:26:09.220Z,14.23
2022-09-06T10:29:10.798Z,10.32
2022-09-06T10:32:31.277Z,14.82
2022-09-06T10:35:37.412Z,10.20
2022-09-06T10:38:51.280Z,8.23
2022-09-06T10:42:04.842Z,9.13
2022-09-06T10:45:29.313Z,9.00
2022-09-06T10:48:38.398Z,10.20
2022-09-06T10:51:44.025Z,9.77
2022-09-06T10:54:47.284Z,5.18
2022-09-06T11:01:21.274Z,8.70
2022-09-06T11:11:54.057Z,10.38
2022-09-06T11:14:55.658Z,4.82
2022-09-06T11:18:03.000Z,12.38
2022-09-06T11:21:42.318Z,3.75
2022-09-06T11:25:42.517Z,8.48
2022-09-06T11:28:46.281Z,2.97
2022-09-06T11:35:24.127Z,5.53
2022-09-06T11:38:26.486Z,7.50
2022-09-06T11:41:35.585Z,4.22
2022-09-06T11:45:06.525Z,5.22
2022-09-06T11:51:43.507Z,6.47
2022-09-06T11:54:45.026Z,4.68
2022-09-06T11:57:46.586Z,7.15
2022-09-06T12:01:13.882Z,2.95
2022-09-06T12:04:15.417Z,3.00
2022-09-06T12:07:16.925Z,5.32
2022-09-06T12:10:30.565Z,2.95
2022-09-06T12:13:47.481Z,2.90
2022-09-06T12:17:01.343Z,4.63
2022-09-06T12:20:07.002Z,2.97
2022-09-06T12:23:08.690Z,1.25
2022-09-06T12:26:10.839Z,5.45
2022-09-06T12:29:12.398Z,1.95
2022-09-06T12:32:13.903Z,3.25
2022-09-06T12:38:58.949Z,4.68
2022-09-06T12:42:02.013Z,4.38
2022-09-06T12:45:04.523Z,3.17
2022-09-06T12:48:09.827Z,3.55
2022-09-06T12:51:19.443Z,5.15
2022-09-06T12:54:22.972Z,7.30
2022-09-06T12:57:25.086Z,4.40
2022-09-06T13:00:32.385Z,5.40
2022-09-06T13:03:50.234Z,2.08
2022-09-06T13:06:51.749Z,2.40
2022-09-06T13:09:54.400Z,2.65
2022-09-06T13:12:57.252Z,3.17
2022-09-06T13:15:58.803Z,2.88
2022-09-06T13:19:13.722Z,1.60
2022-09-06T13:22:38.918Z,3.15
2022-09-06T13:25:48.014Z,6.10
2022-09-06T13:28:49.518Z,2.05
2022-09-06T13:31:52.368Z,2.15
2022-09-06T13:34:56.989Z,1.55
2022-09-06T13:38:21.074Z,3.90
2022-09-06T13:41:25.600Z,1.40
2022-09-06T13:44:31.474Z,1.25
2022-09-06T13:47:33.016Z,4.72
2022-09-06T13:50:34.514Z,2.42
2022-09-06T13:53:36.204Z,2.58
2022-09-06T13:56:37.737Z,2.13
2022-09-06T13:59:39.659Z,2.97
2022-09-06T14:02:41.642Z,1.85
2022-09-06T14:05:44.256Z,2.25
2022-09-06T14:12:07.270Z,3.35
2022-09-06T14:15:09.945Z,1.90
2022-09-06T14:18:14.488Z,4.07
2022-09-06T14:21:16.569Z,3.03
2022-09-06T14:24:18.108Z,3.85
2022-09-06T14:27:19.692Z,4.07
2022-09-06T14:30:21.227Z,4.20
2022-09-06T14:33:22.785Z,3.20
2022-09-06T14:36:29.365Z,2.15
2022-09-06T14:39:30.940Z,2.90
2022-09-06T14:42:32.515Z,4.85
2022-09-06T14:45:34.357Z,3.67
2022-09-06T14:48:39.163Z,6.32
2022-09-06T14:51:43.620Z,3.03
2022-09-06T14:54:45.154Z,4.63
2022-09-06T14:57:46.721Z,3.53
2022-09-06T15:00:50.172Z,6.57
2022-09-06T15:03:54.277Z,8.93
2022-09-06T15:06:56.064Z,3.60
2022-09-06T15:09:57.926Z,7.20
2022-09-06T15:12:59.429Z,5.10
2022-09-06T15:16:01.061Z,5.25
2022-09-06T15:19:02.823Z,6.03
2022-09-06T15:22:04.723Z,4.65
2022-09-06T15:25:06.770Z,7.85
2022-09-06T15:28:08.935Z,3.67
2022-09-06T15:31:10.830Z,5.70
2022-09-06T15:34:12.371Z,4.55
2022-09-06T15:37:13.869Z,3.40
2022-09-06T15:40:15.495Z,5.68
2022-09-06T15:43:17.104Z,5.13
2022-09-06T15:46:21.195Z,3.30
2022-09-06T15:49:28.355Z,5.13
2022-09-06T15:52:30.167Z,5.68
2022-09-06T15:55:50.125Z,3.78
2022-09-06T15:58:51.796Z,7.07
2022-09-06T16:01:53.340Z,4.80
2022-09-06T16:04:54.938Z,6.78
2022-09-06T16:07:56.485Z,4.90
2022-09-06T16:10:58.194Z,2.25
2022-09-06T16:13:59.782Z,4.50
2022-09-06T16:17:01.357Z,3.78
2022-09-06T16:20:03.634Z,12.45
2022-09-06T16:23:05.221Z,5.28
2022-09-06T16:26:07.098Z,8.55
2022-09-06T16:29:09.772Z,5.85
2022-09-06T16:32:11.780Z,4.13
2022-09-06T16:35:13.338Z,6.40
2022-09-06T16:38:14.830Z,4.78
2022-09-06T16:41:25.283Z,8.25
2022-09-06T16:44:26.976Z,6.60
2022-09-06T16:47:28.502Z,4.25
2022-09-06T16:50:30.162Z,5.45
2022-09-06T16:53:31.676Z,4.28
2022-09-06T16:56:35.682Z,8.60
2022-09-06T16:59:38.109Z,5.78
2022-09-06T17:02:43.711Z,4.57
2022-09-06T17:05:51.646Z,5.78
2022-09-06T17:08:53.238Z,6.38
2022-09-06T17:11:55.144Z,4.53
2022-09-06T17:14:56.765Z,2.63
2022-09-06T17:17:58.260Z,5.55
2022-09-06T17:21:05.116Z,4.72
2022-09-06T17:24:07.389Z,7.82
2022-09-06T17:27:09.045Z,9.82
2022-09-06T17:30:11.113Z,4.88
2022-09-06T17:33:13.506Z,7.80
2022-09-06T17:36:17.663Z,7.47
2022-09-06T17:39:21.010Z,5.40
2022-09-06T17:42:22.577Z,6.97
2022-09-06T17:45:24.112Z,6.78
2022-09-06T17:48:27.731Z,7.22
2022-09-06T17:51:29.390Z,5.00
2022-09-06T17:54:31.815Z,7.28
2022-09-06T17:57:34.470Z,4.35
2022-09-06T18:00:39.374Z,11.80
2022-09-06T18:03:41.683Z,3.30
2022-09-06T18:06:43.384Z,5.20
2022-09-06T18:09:45.292Z,8.95
2022-09-06T18:12:46.786Z,6.43
2022-09-06T18:18:54.207Z,5.30
2022-09-06T18:21:57.184Z,8.73
2022-09-06T18:24:58.885Z,7.45
2022-09-06T18:31:09.114Z,8.93
2022-09-06T18:34:10.693Z,5.90
2022-09-06T18:40:13.783Z,7.43
2022-09-06T18:46:16.901Z,11.43
2022-09-06T18:52:20.716Z,5.53
2022-09-06T18:55:22.327Z,8.82
2022-09-06T19:01:26.519Z,3.67
2022-09-06T19:04:28.166Z,6.70
2022-09-06T19:10:31.447Z,5.43
2022-09-06T19:13:33.789Z,10.80
2022-09-06T19:16:35.509Z,4.03
2022-09-06T19:19:37.104Z,5.88
2022-09-06T19:22:38.595Z,11.32
2022-09-06T19:25:40.170Z,6.32
2022-09-06T19:28:41.726Z,8.32
2022-09-06T19:31:43.441Z,10.18
2022-09-06T19:37:46.416Z,6.43
2022-09-06T19:40:48.069Z,5.22
2022-09-06T19:43:53.775Z,6.07
2022-09-06T19:46:55.521Z,5.38
2022-09-06T19:52:58.525Z,4.07
2022-09-06T19:56:00.145Z,7.50
2022-09-06T19:59:07.140Z,6.97
2022-09-06T20:02:09.442Z,10.07
2022-09-06T20:05:11.062Z,7.07
2022-09-06T20:08:13.198Z,8.10
2022-09-06T20:11:14.893Z,5.85
2022-09-06T20:14:16.509Z,7.38
2022-09-06T20:17:33.204Z,9.07
2022-09-06T20:20:35.122Z,5.78
2022-09-06T20:23:36.719Z,8.27
2022-09-06T20:26:38.358Z,11.93
2022-09-06T20:29:39.930Z,11.00
2022-09-06T20:32:42.316Z,7.93
2022-09-06T20:35:43.852Z,9.45
2022-09-06T20:38:45.980Z,11.70
2022-09-06T20:41:47.541Z,5.82
2022-09-06T20:44:49.091Z,12.48
2022-09-06T20:47:50.686Z,7.38
2022-09-06T20:50:59.887Z,4.82
2022-09-06T20:54:02.376Z,4.80
2022-09-06T20:57:03.962Z,6.10
2022-09-06T21:00:05.845Z,8.30
2022-09-06T21:06:10.298Z,4.95
2022-09-06T21:09:13.178Z,8.73
2022-09-06T21:12:14.653Z,6.97
2022-09-06T21:15:16.218Z,9.00
2022-09-06T21:18:17.795Z,11.25
2022-09-06T21:21:19.646Z,5.85
2022-09-06T21:27:22.685Z,8.50
2022-09-06T21:30:24.244Z,8.45
2022-09-06T21:33:31.313Z,7.38
2022-09-06T21:36:35.745Z,6.63
2022-09-06T21:39:38.300Z,6.43
2022-09-06T21:42:39.920Z,7.60
2022-09-06T21:45:41.519Z,6.95
2022-09-06T21:48:44.516Z,5.07
2022-09-06T21:51:46.107Z,6.30
2022-09-06T21:54:47.658Z,7.18
2022-09-06T21:57:50.174Z,6.68
2022-09-06T22:00:52.743Z,6.88
2022-09-06T22:03:54.345Z,9.98
2022-09-06T22:06:55.861Z,5.32
2022-09-06T22:09:57.403Z,7.20
2022-09-06T22:12:58.894Z,7.25
2022-09-06T22:16:07.486Z,8.13
2022-09-06T22:19:09.982Z,6.53
2022-09-06T22:22:11.509Z,7.00
2022-09-06T22:25:13.748Z,5.75
2022-09-06T22:28:15.387Z,6.72
2022-09-06T22:31:16.970Z,9.65
2022-09-06T22:34:18.564Z,4.93
2022-09-06T22:37:20.154Z,13.35
2022-09-06T22:40:21.737Z,7.60
2022-09-06T22:43:23.267Z,4.43
2022-09-06T22:46:24.857Z,8.52
2022-09-06T22:49:26.391Z,10.35
2022-09-06T22:52:27.974Z,6.72
2022-09-06T22:55:29.796Z,4.68
2022-09-06T23:01:38.710Z,9.65
2022-09-06T23:04:40.277Z,8.48
2022-09-06T23:07:43.361Z,10.00
2022-09-06T23:10:44.884Z,5.57
2022-09-06T23:13:47.156Z,7.93
2022-09-06T23:16:48.758Z,5.85
2022-09-06T23:19:50.318Z,11.05
2022-09-06T23:22:51.844Z,8.93
2022-09-06T23:25:54.177Z,11.43
2022-09-06T23:28:56.716Z,5.60
2022-09-06T23:31:58.349Z,4.88
2022-09-06T23:34:59.859Z,7.50
2022-09-06T23:38:01.376Z,8.00
2022-09-06T23:41:03.145Z,6.93
2022-09-06T23:44:04.704Z,9.85
2022-09-06T23:47:06.231Z,5.80
2022-09-06T23:50:07.924Z,12.23
2022-09-06T23:53:10.459Z,8.70
2022-09-06T23:56:12.282Z,6.72
